createdAt,value
2022-12-11T00:01:21.480Z,13.38
2022-12-11T00:03:51.601Z,13.07
2022-12-11T00:06:21.656Z,12.60
2022-12-11T00:08:52.071Z,13.52
2022-12-11T00:11:19.053Z,13.18
2022-12-11T00:13:46.139Z,12.80
2022-12-11T00:16:13.393Z,13.20
2022-12-11T00:21:10.964Z,13.00
2022-12-11T00:23:38.037Z,12.60
2022-12-11T00:26:14.487Z,12.02
2022-12-11T00:28:42.272Z,11.98
2022-12-11T00:31:12.832Z,13.70
2022-12-11T00:33:42.082Z,13.02
2022-12-11T00:36:14.237Z,13.00
2022-12-11T00:38:42.681Z,12.07
2022-12-11T00:41:10.334Z,13.32
2022-12-11T00:43:42.344Z,13.18
2022-12-11T00:46:12.396Z,13.07
2022-12-11T00:48:40.048Z,11.98
2022-12-11T00:51:07.227Z,11.30
2022-12-11T00:53:34.424Z,11.75
2022-12-11T00:56:11.496Z,10.32
2022-12-11T00:58:41.542Z,12.07
2022-12-11T01:01:11.046Z,12.27
2022-12-11T01:03:38.811Z,13.07
2022-12-11T01:06:08.802Z,12.70
2022-12-11T01:08:38.667Z,13.35
2022-12-11T01:11:10.495Z,12.63
2022-12-11T01:13:38.727Z,13.77
2022-12-11T01:16:10.391Z,11.73
2022-12-11T01:18:40.392Z,11.35
2022-12-11T01:21:12.457Z,11.80
2022-12-11T01:23:39.772Z,11.23
2022-12-11T01:28:37.264Z,11.52
2022-12-11T01:33:38.435Z,10.40
2022-12-11T01:36:31.771Z,10.52
2022-12-11T01:38:58.768Z,10.20
2022-12-11T01:41:25.916Z,10.35
2022-12-11T01:44:27.490Z,11.00
2022-12-11T01:46:54.572Z,9.23
2022-12-11T01:49:26.142Z,10.25
2022-12-11T01:52:08.014Z,9.80
2022-12-11T01:54:35.266Z,9.55
2022-12-11T01:59:38.782Z,9.52
2022-12-11T02:02:17.282Z,10.30
2022-12-11T02:04:45.947Z,9.77
2022-12-11T02:07:17.997Z,10.02
2022-12-11T02:09:50.710Z,10.02
2022-12-11T02:12:36.732Z,10.13
2022-12-11T02:15:11.575Z,10.48
2022-12-11T02:17:41.427Z,10.23
2022-12-11T02:20:12.604Z,10.38
2022-12-11T02:23:09.474Z,10.55
2022-12-11T02:25:47.311Z,9.40
2022-12-11T02:28:50.706Z,9.98
2022-12-11T02:31:38.672Z,9.30
2022-12-11T02:34:27.060Z,9.85
2022-12-11T02:37:04.274Z,10.75
2022-12-11T02:39:38.674Z,11.02
2022-12-11T02:42:11.336Z,10.07
2022-12-11T02:44:40.118Z,10.57
2022-12-11T02:47:12.193Z,11.55
2022-12-11T02:49:44.477Z,11.30
2022-12-11T02:52:14.402Z,12.18
2022-12-11T02:54:44.947Z,12.52
2022-12-11T02:57:42.950Z,11.88
2022-12-11T03:00:13.288Z,11.80
2022-12-11T03:02:43.735Z,12.25
2022-12-11T03:05:15.788Z,11.85
2022-12-11T03:07:46.360Z,12.07
2022-12-11T03:10:18.723Z,10.68
2022-12-11T03:12:53.455Z,9.95
2022-12-11T03:15:24.106Z,10.20
2022-12-11T03:18:07.709Z,10.20
2022-12-11T03:20:47.780Z,10.88
2022-12-11T03:23:30.567Z,11.02
2022-12-11T03:26:03.417Z,12.50
2022-12-11T03:28:33.522Z,11.40
2022-12-11T03:31:09.821Z,12.30
2022-12-11T03:33:43.356Z,12.25
2022-12-11T03:36:17.524Z,13.18
2022-12-11T03:38:56.382Z,12.52
2022-12-11T03:41:26.939Z,12.43
2022-12-11T03:43:59.544Z,12.93
2022-12-11T03:46:35.555Z,13.32
2022-12-11T03:49:08.638Z,13.07
2022-12-11T03:51:36.609Z,12.50
2022-12-11T03:54:03.943Z,13.27
2022-12-11T03:58:59.065Z,12.30
2022-12-11T04:01:26.041Z,12.35
2022-12-11T04:03:53.251Z,13.30
2022-12-11T04:08:47.285Z,13.63
2022-12-11T04:11:34.533Z,12.82
2022-12-11T04:14:28.290Z,13.75
2022-12-11T04:16:56.508Z,13.27
2022-12-11T04:19:42.858Z,14.30
2022-12-11T04:22:30.749Z,13.95
2022-12-11T04:24:57.816Z,13.80
2022-12-11T04:27:45.674Z,13.82
2022-12-11T04:30:22.219Z,12.70
2022-12-11T04:32:53.058Z,13.93
2022-12-11T04:35:22.878Z,14.02
2022-12-11T04:37:52.379Z,13.80
2022-12-11T04:40:22.157Z,13.88
2022-12-11T04:47:45.518Z,13.15
2022-12-11T04:50:14.342Z,14.80
2022-12-11T04:52:44.737Z,16.35
2022-12-11T04:55:12.852Z,13.70
2022-12-11T04:57:39.960Z,14.77
2022-12-11T05:00:11.982Z,14.02
2022-12-11T05:02:41.008Z,15.07
2022-12-11T05:05:10.326Z,14.25
2022-12-11T05:07:37.959Z,14.63
2022-12-11T05:10:06.018Z,13.88
2022-12-11T05:12:33.613Z,13.93
2022-12-11T05:15:02.805Z,14.10
2022-12-11T05:17:29.742Z,13.25
2022-12-11T05:19:59.233Z,13.38
2022-12-11T05:22:26.134Z,13.85
2022-12-11T05:24:53.085Z,13.35
2022-12-11T05:27:24.447Z,12.63
2022-12-11T05:29:59.229Z,13.55
2022-12-11T05:32:26.538Z,13.77
2022-12-11T05:34:53.430Z,13.55
2022-12-11T05:37:25.189Z,14.18
2022-12-11T05:39:52.165Z,13.13
2022-12-11T05:42:22.791Z,13.18
2022-12-11T05:44:57.167Z,13.85
2022-12-11T05:47:26.412Z,13.93
2022-12-11T05:49:55.675Z,14.63
2022-12-11T05:52:24.850Z,13.88
2022-12-11T05:54:56.538Z,13.57
2022-12-11T05:57:23.454Z,12.95
2022-12-11T05:59:50.491Z,14.05
2022-12-11T06:02:17.564Z,14.27
2022-12-11T06:04:44.559Z,13.20
2022-12-11T06:07:11.531Z,13.05
2022-12-11T06:09:43.313Z,13.32
2022-12-11T06:12:12.426Z,13.98
2022-12-11T06:14:39.342Z,13.82
2022-12-11T06:17:06.314Z,14.20
2022-12-11T06:19:37.187Z,13.20
2022-12-11T06:22:06.393Z,14.52
2022-12-11T06:24:35.810Z,14.25
2022-12-11T06:27:04.852Z,13.82
2022-12-11T06:29:31.850Z,14.50
2022-12-11T06:32:01.187Z,13.77
2022-12-11T06:34:32.701Z,14.70
2022-12-11T06:36:59.840Z,15.35
2022-12-11T06:39:26.927Z,14.73
2022-12-11T06:41:56.363Z,15.82
2022-12-11T06:44:25.810Z,15.25
2022-12-11T06:46:52.753Z,16.33
2022-12-11T06:49:22.002Z,15.88
2022-12-11T06:51:48.997Z,15.98
2022-12-11T06:54:15.929Z,16.40
2022-12-11T06:56:45.097Z,16.90
2022-12-11T06:59:12.835Z,16.27
2022-12-11T07:01:42.911Z,17.08
2022-12-11T07:04:09.933Z,16.95
2022-12-11T07:06:38.930Z,16.90
2022-12-11T07:09:06.857Z,17.15
2022-12-11T07:11:33.730Z,16.55
2022-12-11T07:14:00.832Z,16.58
2022-12-11T07:16:30.209Z,17.42
2022-12-11T07:18:57.151Z,16.10
2022-12-11T07:21:24.374Z,15.38
2022-12-11T07:26:22.161Z,15.30
2022-12-11T07:28:52.286Z,19.80
2022-12-11T07:31:25.009Z,24.60
2022-12-11T07:33:57.165Z,16.83
2022-12-11T07:36:24.702Z,15.65
2022-12-11T07:38:52.097Z,15.50
2022-12-11T07:41:23.243Z,15.63
2022-12-11T07:43:54.557Z,15.13
2022-12-11T07:46:25.574Z,15.90
2022-12-11T07:48:55.216Z,15.77
2022-12-11T07:51:27.813Z,15.00
2022-12-11T07:54:02.437Z,15.30
2022-12-11T07:56:30.344Z,15.95
2022-12-11T07:59:05.351Z,14.77
2022-12-11T08:01:35.736Z,15.10
2022-12-11T08:04:07.524Z,14.90
2022-12-11T08:06:37.344Z,17.92
2022-12-11T08:09:07.186Z,16.10
2022-12-11T08:11:35.075Z,17.02
2022-12-11T08:14:05.889Z,15.55
2022-12-11T08:16:32.977Z,15.32
2022-12-11T08:19:03.299Z,15.57
2022-12-11T08:21:30.402Z,15.52
2022-12-11T08:23:57.383Z,15.57
2022-12-11T08:26:30.081Z,15.05
2022-12-11T08:29:02.863Z,15.35
2022-12-11T08:31:29.949Z,16.70
2022-12-11T08:33:59.447Z,16.92
2022-12-11T08:36:26.664Z,15.85
2022-12-11T08:41:31.832Z,14.90
2022-12-11T08:44:01.920Z,16.23
2022-12-11T08:46:35.619Z,15.27
2022-12-11T08:49:02.618Z,16.77
2022-12-11T08:51:34.278Z,15.23
2022-12-11T08:54:01.949Z,15.85
2022-12-11T08:56:30.283Z,14.48
2022-12-11T08:59:00.578Z,15.43
2022-12-11T09:01:28.351Z,15.07
2022-12-11T09:03:56.799Z,15.18
2022-12-11T09:06:30.971Z,35.72
2022-12-11T09:09:01.378Z,18.25
2022-12-11T09:11:34.412Z,15.15
2022-12-11T09:14:07.311Z,15.07
2022-12-11T09:16:40.373Z,14.93
2022-12-11T09:19:09.416Z,14.77
2022-12-11T09:21:36.397Z,15.32
2022-12-11T09:24:03.730Z,14.68
2022-12-11T09:28:58.419Z,13.23
2022-12-11T09:31:33.595Z,14.38
2022-12-11T09:34:11.706Z,14.27
2022-12-11T09:36:44.676Z,13.82
2022-12-11T09:39:13.171Z,14.10
2022-12-11T09:42:01.010Z,15.18
2022-12-11T09:44:57.471Z,14.63
2022-12-11T09:47:34.447Z,13.35
2022-12-11T09:50:10.318Z,15.00
2022-12-11T09:53:00.514Z,14.48
2022-12-11T09:55:51.653Z,14.07
2022-12-11T09:58:32.816Z,14.40
2022-12-11T10:01:06.079Z,14.07
2022-12-11T10:03:51.784Z,13.63
2022-12-11T10:06:33.099Z,14.63
2022-12-11T10:09:11.986Z,13.45
2022-12-11T10:12:00.302Z,15.18
2022-12-11T10:14:48.542Z,14.77
2022-12-11T10:17:21.410Z,14.77
2022-12-11T10:19:49.384Z,15.90
2022-12-11T10:22:29.974Z,14.50
2022-12-11T10:25:23.510Z,14.02
2022-12-11T10:27:53.977Z,15.32
2022-12-11T10:30:29.320Z,15.07
2022-12-11T10:33:12.140Z,14.63
2022-12-11T10:35:55.657Z,14.90
2022-12-11T10:38:32.831Z,15.45
2022-12-11T10:43:37.671Z,14.82
2022-12-11T10:46:07.551Z,15.25
2022-12-11T10:48:46.353Z,14.63
2022-12-11T10:51:16.063Z,15.15
2022-12-11T10:53:44.665Z,14.50
2022-12-11T10:56:14.160Z,14.75
2022-12-11T10:58:49.971Z,15.77
2022-12-11T11:01:23.574Z,14.48
2022-12-11T11:03:53.338Z,14.65
2022-12-11T11:06:24.677Z,15.55
2022-12-11T11:08:54.653Z,14.15
2022-12-11T11:11:29.635Z,14.40
2022-12-11T11:14:19.185Z,15.00
2022-12-11T11:16:50.692Z,15.02
2022-12-11T11:19:33.768Z,15.35
2022-12-11T11:22:19.320Z,16.23
2022-12-11T11:24:59.677Z,13.98
2022-12-11T11:27:30.152Z,13.88
2022-12-11T11:30:01.831Z,13.85
2022-12-11T11:32:38.614Z,12.50
2022-12-11T11:35:12.048Z,14.20
2022-12-11T11:37:45.403Z,13.57
2022-12-11T11:40:27.939Z,13.88
2022-12-11T11:43:04.136Z,15.07
2022-12-11T11:45:43.822Z,13.90
2022-12-11T11:48:14.953Z,13.05
2022-12-11T11:50:46.533Z,13.52
2022-12-11T11:53:22.635Z,12.57
2022-12-11T11:55:59.217Z,12.35
2022-12-11T11:59:04.690Z,12.02
2022-12-11T12:01:32.212Z,12.40
2022-12-11T12:04:03.923Z,11.32
2022-12-11T12:06:33.672Z,11.90
2022-12-11T12:09:39.958Z,11.32
2022-12-11T12:12:33.993Z,11.00
2022-12-11T12:15:07.135Z,11.88
2022-12-11T12:17:54.985Z,10.13
2022-12-11T12:20:33.731Z,11.63
2022-12-11T12:23:21.390Z,9.80
2022-12-11T12:26:03.285Z,10.63
2022-12-11T12:28:42.224Z,9.65
2022-12-11T12:31:21.500Z,10.27
2022-12-11T12:33:53.603Z,9.30
2022-12-11T12:36:38.778Z,9.30
2022-12-11T12:39:20.915Z,9.85
2022-12-11T12:42:07.847Z,9.98
2022-12-11T12:44:53.826Z,10.60
2022-12-11T12:47:22.473Z,10.85
2022-12-11T12:49:55.062Z,12.23
2022-12-11T12:52:31.182Z,11.60
2022-12-11T12:55:17.759Z,12.00
2022-12-11T12:57:51.932Z,12.48
2022-12-11T13:00:39.518Z,12.15
2022-12-11T13:03:20.346Z,12.50
2022-12-11T13:06:02.268Z,13.50
2022-12-11T13:08:39.598Z,13.30
2022-12-11T13:11:10.556Z,14.07
2022-12-11T13:13:42.138Z,13.57
2022-12-11T13:16:37.480Z,12.40
2022-12-11T13:19:25.631Z,12.52
2022-12-11T13:22:14.624Z,11.45
2022-12-11T13:24:48.814Z,12.15
2022-12-11T13:27:38.441Z,12.30
2022-12-11T13:30:28.445Z,11.13
2022-12-11T13:33:18.762Z,11.57
2022-12-11T13:35:48.248Z,11.88
2022-12-11T13:38:20.956Z,11.05
2022-12-11T13:40:57.109Z,11.63
2022-12-11T13:43:28.819Z,11.27
2022-12-11T13:46:04.887Z,11.73
2022-12-11T13:48:37.161Z,11.75
2022-12-11T13:51:06.269Z,11.82
2022-12-11T13:53:33.650Z,11.38
2022-12-11T13:56:06.306Z,11.73
2022-12-11T13:58:39.437Z,11.57
2022-12-11T14:01:14.265Z,13.27
2022-12-11T14:03:53.640Z,12.68
2022-12-11T14:06:20.621Z,11.38
2022-12-11T14:08:57.246Z,11.70
2022-12-11T14:11:28.519Z,11.77
2022-12-11T14:13:59.895Z,11.10
2022-12-11T14:16:27.645Z,10.52
2022-12-11T14:18:59.786Z,10.65
2022-12-11T14:21:29.464Z,10.23
2022-12-11T14:24:03.689Z,9.38
2022-12-11T14:26:32.859Z,9.50
2022-12-11T14:29:04.198Z,9.65
2022-12-11T14:31:44.552Z,11.15
2022-12-11T14:34:21.032Z,9.73
2022-12-11T14:36:49.687Z,11.25
2022-12-11T14:40:07.393Z,11.02
2022-12-11T14:42:40.280Z,10.77
2022-12-11T14:45:21.237Z,10.93
2022-12-11T14:47:49.454Z,10.75
2022-12-11T14:50:47.517Z,10.63
2022-12-11T14:53:21.151Z,10.68
2022-12-11T14:55:51.767Z,12.23
2022-12-11T14:58:24.933Z,12.20
2022-12-11T15:01:07.312Z,12.05
2022-12-11T15:03:39.031Z,11.13
2022-12-11T15:06:25.973Z,13.30
2022-12-11T15:11:33.732Z,12.85
2022-12-11T15:14:04.211Z,12.20
2022-12-11T15:16:34.601Z,13.15
2022-12-11T15:19:02.196Z,13.13
2022-12-11T15:21:35.507Z,12.32
2022-12-11T15:24:07.803Z,13.52
2022-12-11T15:26:36.507Z,13.80
2022-12-11T15:29:41.628Z,12.90
2022-12-11T15:32:08.496Z,13.38
2022-12-11T15:34:42.579Z,13.07
2022-12-11T15:37:30.042Z,13.48
2022-12-11T15:39:59.600Z,13.45
2022-12-11T15:42:41.789Z,14.18
2022-12-11T15:45:17.012Z,14.88
2022-12-11T15:47:44.194Z,13.35
2022-12-11T15:50:20.199Z,13.45
2022-12-11T15:52:54.260Z,15.18
2022-12-11T15:55:26.504Z,15.25
2022-12-11T15:58:00.495Z,15.02
2022-12-11T16:00:28.218Z,13.93
2022-12-11T16:02:55.923Z,13.98
2022-12-11T16:05:29.646Z,14.07
2022-12-11T16:07:59.711Z,13.85
2022-12-11T16:10:27.363Z,13.00
2022-12-11T16:13:01.768Z,13.30
2022-12-11T16:15:29.586Z,13.77
2022-12-11T16:18:06.370Z,13.48
2022-12-11T16:20:37.433Z,13.85
2022-12-11T16:23:04.851Z,14.15
2022-12-11T16:25:32.900Z,13.40
2022-12-11T16:28:01.651Z,13.55
2022-12-11T16:30:35.293Z,14.73
2022-12-11T16:33:12.022Z,14.25
2022-12-11T16:35:40.741Z,12.90
2022-12-11T16:38:10.882Z,12.43
2022-12-11T16:40:41.600Z,11.80
2022-12-11T16:43:09.547Z,12.73
2022-12-11T16:45:36.542Z,13.75
2022-12-11T16:48:06.848Z,13.82
2022-12-11T16:50:33.908Z,13.77
2022-12-11T16:53:00.858Z,13.57
2022-12-11T16:55:27.855Z,14.02
2022-12-11T16:57:55.166Z,13.80
2022-12-11T17:02:52.283Z,15.30
2022-12-11T17:05:19.594Z,15.40
2022-12-11T17:07:46.662Z,15.43
2022-12-11T17:10:13.973Z,15.05
2022-12-11T17:15:08.857Z,15.90
2022-12-11T17:17:38.214Z,15.95
2022-12-11T17:20:08.012Z,19.10
2022-12-11T17:22:35.828Z,19.05
2022-12-11T17:25:03.183Z,14.50
2022-12-11T17:27:34.547Z,13.43
2022-12-11T17:30:05.209Z,14.07
2022-12-11T17:32:32.167Z,16.67
2022-12-11T17:34:59.146Z,14.32
2022-12-11T17:37:26.201Z,18.40
2022-12-11T17:39:53.170Z,13.73
2022-12-11T17:42:20.241Z,14.13
2022-12-11T17:44:49.698Z,14.88
2022-12-11T17:47:18.332Z,18.13
2022-12-11T17:49:45.551Z,20.17
2022-12-11T17:54:48.316Z,15.48
2022-12-11T17:57:15.372Z,14.50
2022-12-11T17:59:42.261Z,14.77
2022-12-11T18:02:10.682Z,14.68
2022-12-11T18:04:40.308Z,20.17
2022-12-11T18:07:07.853Z,15.43
2022-12-11T18:09:34.759Z,15.00
2022-12-11T18:12:01.808Z,15.50
2022-12-11T18:14:28.909Z,17.52
2022-12-11T18:16:55.855Z,17.40
2022-12-11T18:19:23.758Z,17.65
2022-12-11T18:21:50.828Z,19.10
2022-12-11T18:24:20.127Z,19.23
2022-12-11T18:26:47.914Z,19.08
2022-12-11T18:29:15.414Z,18.42
2022-12-11T18:31:43.263Z,18.73
2022-12-11T18:34:13.404Z,18.10
2022-12-11T18:36:42.927Z,18.55
2022-12-11T18:39:10.106Z,18.85
2022-12-11T18:41:37.261Z,22.73
2022-12-11T18:44:09.462Z,19.67
2022-12-11T18:46:39.751Z,18.00
2022-12-11T18:49:07.316Z,19.23
2022-12-11T18:51:34.684Z,18.63
2022-12-11T18:54:01.865Z,17.92
2022-12-11T18:56:58.629Z,42.67
2022-12-11T18:59:30.210Z,19.95
2022-12-11T19:02:29.502Z,19.90
2022-12-11T19:04:59.598Z,21.85
2022-12-11T19:07:27.622Z,19.05
2022-12-11T19:09:55.037Z,19.17
2022-12-11T19:12:24.291Z,19.83
2022-12-11T19:14:51.650Z,19.15
2022-12-11T19:17:18.737Z,18.70
2022-12-11T19:19:50.941Z,20.17
2022-12-11T19:22:20.603Z,19.02
2022-12-11T19:24:47.651Z,21.90
2022-12-11T19:27:17.037Z,19.58
2022-12-11T19:29:44.153Z,23.88
2022-12-11T19:32:13.818Z,18.48
2022-12-11T19:34:44.302Z,37.72
2022-12-11T19:37:18.617Z,19.88
2022-12-11T19:39:48.950Z,17.63
2022-12-11T19:42:18.720Z,18.58
2022-12-11T19:44:56.003Z,19.08
2022-12-11T19:47:25.210Z,20.40
2022-12-11T19:49:57.564Z,20.77
2022-12-11T19:52:27.671Z,21.15
2022-12-11T19:54:54.653Z,21.85
2022-12-11T19:57:25.246Z,21.17
2022-12-11T19:59:56.949Z,21.88
2022-12-11T20:02:30.471Z,21.58
2022-12-11T20:04:59.831Z,22.27
2022-12-11T20:07:30.832Z,23.80
2022-12-11T20:10:02.814Z,21.83
2022-12-11T20:12:32.780Z,21.92
2022-12-11T20:17:36.883Z,21.77
2022-12-11T20:20:07.343Z,22.30
2022-12-11T20:22:36.535Z,24.80
2022-12-11T20:25:06.449Z,22.40
2022-12-11T20:27:37.098Z,24.10
2022-12-11T20:30:08.247Z,22.08
2022-12-11T20:32:40.040Z,22.58
2022-12-11T20:35:07.946Z,22.33
2022-12-11T20:37:35.718Z,21.38
2022-12-11T20:40:08.650Z,21.85
2022-12-11T20:42:38.154Z,20.52
2022-12-11T20:45:08.718Z,23.35
2022-12-11T20:47:37.897Z,22.85
2022-12-11T20:50:09.020Z,21.20
2022-12-11T20:52:38.972Z,24.95
2022-12-11T20:55:07.234Z,25.23
2022-12-11T20:57:40.638Z,25.75
2022-12-11T21:00:15.895Z,24.02
2022-12-11T21:02:51.997Z,23.55
2022-12-11T21:05:19.030Z,22.48
2022-12-11T21:07:48.683Z,21.67
2022-12-11T21:10:18.286Z,22.30
2022-12-11T21:12:45.565Z,22.73
2022-12-11T21:17:42.081Z,21.27
2022-12-11T21:20:14.844Z,22.08
2022-12-11T21:22:41.921Z,22.45
2022-12-11T21:25:15.697Z,22.83
2022-12-11T21:27:44.905Z,21.30
2022-12-11T21:30:12.564Z,21.05
2022-12-11T21:32:39.913Z,22.67
2022-12-11T21:35:07.326Z,20.95
2022-12-11T21:37:34.439Z,20.67
2022-12-11T21:40:01.459Z,19.00
2022-12-11T21:42:31.154Z,21.52
2022-12-11T21:47:53.656Z,20.60
2022-12-11T21:50:21.345Z,21.77
2022-12-11T21:52:50.911Z,21.55
2022-12-11T21:55:20.849Z,21.67
2022-12-11T21:57:48.325Z,22.95
2022-12-11T22:00:16.131Z,22.63
2022-12-11T22:02:45.964Z,23.80
2022-12-11T22:05:13.133Z,24.15
2022-12-11T22:07:42.463Z,25.17
2022-12-11T22:10:12.503Z,34.17
2022-12-11T22:12:39.528Z,27.75
2022-12-11T22:15:10.110Z,22.10
2022-12-11T22:17:41.943Z,23.40
2022-12-11T22:20:09.320Z,22.50
2022-12-11T22:22:37.620Z,21.75
2022-12-11T22:25:07.820Z,21.70
2022-12-11T22:27:37.363Z,23.13
2022-12-11T22:30:05.216Z,23.05
2022-12-11T22:32:32.512Z,23.48
2022-12-11T22:35:04.840Z,24.80
2022-12-11T22:37:34.214Z,25.13
2022-12-11T22:40:01.251Z,25.55
2022-12-11T22:42:28.263Z,24.02
2022-12-11T22:44:55.314Z,21.15
2022-12-11T22:47:22.250Z,20.92
2022-12-11T22:49:49.449Z,21.45
2022-12-11T22:57:10.923Z,19.55
2022-12-11T22:59:37.914Z,20.63
2022-12-11T23:02:07.508Z,20.20
2022-12-11T23:04:34.684Z,21.92
2022-12-11T23:07:06.645Z,21.08
2022-12-11T23:09:36.636Z,21.15
2022-12-11T23:12:04.804Z,18.27
2022-12-11T23:17:03.277Z,17.40
2022-12-11T23:19:32.758Z,16.40
2022-12-11T23:22:02.989Z,16.80
2022-12-11T23:24:30.062Z,17.73
2022-12-11T23:27:00.383Z,16.13
2022-12-11T23:29:27.351Z,17.60
2022-12-11T23:31:54.380Z,17.88
2022-12-11T23:34:21.299Z,18.40
2022-12-11T23:36:48.362Z,17.02
2022-12-11T23:39:18.218Z,16.92
2022-12-11T23:41:45.323Z,17.25
2022-12-11T23:44:12.445Z,17.48
2022-12-11T23:46:39.518Z,16.60
2022-12-11T23:49:06.958Z,17.05
2022-12-11T23:51:34.191Z,16.63
2022-12-11T23:56:29.721Z,15.73
2022-12-11T23:58:59.336Z,16.45
